CheckWX is a tool to help pilots better visualize weather data.  It is not intended as a substitute for an official pre-flight weather briefing.

19:10:17 UTC

KLOZ TAF
London-Corbin Arpt-Magee Field Airport
London, Kentucky, USA
KLOZ 121740Z 1218/1318 34009G18KT P6SM VCSH OVC019 FM122000 34009KT P6SM BKN020 FM122300 35007KT P6SM SCT040 FM130300 VRB03KT P6SM FEW150

Nov-12@
18:00 UTC

Nov-12 @ 18:00 UTC

Nov-12@
20:00 UTC

Nov-12 @ 20:00 UTC

KLOZ 121740Z 1218/1318 34009G18KT P6SM VCSH OVC019
Wind
  • 340° at 9 KTS
  • {Gusting to 18 KTS
Cloud Levels
  • Overcast at 1,900' AGL

Nov-12@
20:00 UTC

Nov-12 @ 20:00 UTC

Nov-12@
23:00 UTC

Nov-12 @ 23:00 UTC

FM122000 34009KT P6SM BKN020

From

From Standard forecast or significant change

Wind
  • 340° at 9 KTS
Cloud Levels
  • Broken at 2,000' AGL

Nov-12@
23:00 UTC

Nov-12 @ 23:00 UTC

Nov-13@
03:00 UTC

Nov-13 @ 03:00 UTC

FM122300 35007KT P6SM SCT040

From

From Standard forecast or significant change

Wind
  • 350° at 7 KTS
Cloud Levels
  • Scattered at 4,000' AGL

Nov-13@
03:00 UTC

Nov-13 @ 03:00 UTC

Nov-13@
18:00 UTC

Nov-13 @ 18:00 UTC

FM130300 VRB03KT P6SM FEW150

From

From Standard forecast or significant change

Wind
  • Variable at 3 KTS
Cloud Levels
  • Few at 15,000' AGL